createdAt,value
2024-03-26T00:01:44.755Z,6.30
2024-03-26T00:04:12.736Z,6.80
2024-03-26T00:06:40.730Z,6.70
2024-03-26T00:09:09.268Z,6.70
2024-03-26T00:11:37.332Z,5.90
2024-03-26T00:14:05.328Z,6.40
2024-03-26T00:16:33.407Z,6.30
2024-03-26T00:19:01.353Z,6.70
2024-03-26T00:21:29.339Z,6.50
2024-03-26T00:23:57.441Z,5.70
2024-03-26T00:26:25.497Z,6.50
2024-03-26T00:28:54.155Z,6.50
2024-03-26T00:31:22.091Z,6.40
2024-03-26T00:33:50.834Z,6.50
2024-03-26T00:36:18.782Z,6.40
2024-03-26T00:38:46.743Z,5.80
2024-03-26T00:41:14.695Z,6.20
2024-03-26T00:43:42.824Z,6.50
2024-03-26T00:46:11.075Z,5.70
2024-03-26T00:48:39.049Z,6.50
2024-03-26T00:51:07.474Z,6.60
2024-03-26T00:53:35.653Z,7.00
2024-03-26T00:56:03.819Z,5.90
2024-03-26T00:58:31.920Z,6.70
2024-03-26T01:00:59.908Z,6.70
2024-03-26T01:03:27.907Z,8.50
2024-03-26T01:05:57.476Z,7.50
2024-03-26T01:08:25.384Z,6.90
2024-03-26T01:10:54.163Z,8.10
2024-03-26T01:13:22.820Z,6.60
2024-03-26T01:15:50.912Z,6.80
2024-03-26T01:18:19.101Z,5.30
2024-03-26T01:20:47.112Z,6.10
2024-03-26T01:23:15.170Z,5.20
2024-03-26T01:25:43.104Z,5.70
2024-03-26T01:28:11.063Z,5.60
2024-03-26T01:30:39.061Z,5.60
2024-03-26T01:33:07.009Z,6.20
2024-03-26T01:35:34.986Z,5.10
2024-03-26T01:38:02.944Z,5.40
2024-03-26T01:40:30.907Z,6.10
2024-03-26T01:42:59.504Z,5.30
2024-03-26T01:45:31.138Z,4.80
2024-03-26T01:47:59.440Z,4.60
2024-03-26T01:50:28.072Z,5.00
2024-03-26T01:52:56.589Z,4.50
2024-03-26T01:55:26.308Z,5.50
2024-03-26T01:57:54.440Z,5.50
2024-03-26T02:00:26.042Z,4.80
2024-03-26T02:02:54.245Z,5.60
2024-03-26T02:05:23.670Z,6.00
2024-03-26T02:07:51.769Z,5.60
2024-03-26T02:10:20.751Z,6.00
2024-03-26T02:12:48.871Z,5.30
2024-03-26T02:15:16.870Z,5.90
2024-03-26T02:17:44.841Z,4.70
2024-03-26T02:20:15.591Z,4.70
2024-03-26T02:22:43.562Z,5.40
2024-03-26T02:25:11.485Z,5.50
2024-03-26T02:27:39.453Z,6.70
2024-03-26T02:30:07.748Z,5.60
2024-03-26T02:32:35.724Z,5.10
2024-03-26T02:35:03.903Z,5.10
2024-03-26T02:37:31.884Z,4.30
2024-03-26T02:39:59.855Z,5.30
2024-03-26T02:42:28.444Z,4.80
2024-03-26T02:44:56.781Z,4.50
2024-03-26T02:47:24.736Z,5.60
2024-03-26T02:49:52.733Z,4.20
2024-03-26T02:52:20.702Z,4.40
2024-03-26T02:54:48.657Z,5.50
2024-03-26T02:57:16.622Z,4.70
2024-03-26T02:59:44.604Z,5.70
2024-03-26T03:02:14.994Z,4.70
2024-03-26T03:04:42.959Z,3.90
2024-03-26T03:07:10.950Z,4.20
2024-03-26T03:09:39.340Z,4.20
2024-03-26T03:12:07.400Z,3.80
2024-03-26T03:14:35.409Z,4.00
2024-03-26T03:17:03.381Z,4.60
2024-03-26T03:19:31.534Z,4.40
2024-03-26T03:21:59.611Z,4.30
2024-03-26T03:24:27.543Z,3.70
2024-03-26T03:26:55.544Z,3.70
2024-03-26T03:29:23.642Z,3.60
2024-03-26T03:31:51.645Z,3.90
2024-03-26T03:34:19.654Z,4.90
2024-03-26T03:36:47.692Z,4.00
2024-03-26T03:39:15.664Z,4.60
2024-03-26T03:41:43.884Z,3.90
2024-03-26T03:44:13.568Z,5.00
2024-03-26T03:46:41.516Z,4.00
2024-03-26T03:49:09.573Z,3.50
2024-03-26T03:51:37.597Z,3.70
2024-03-26T03:54:05.735Z,4.30
2024-03-26T03:56:33.698Z,4.30
2024-03-26T03:59:01.941Z,4.00
2024-03-26T04:01:29.904Z,4.00
2024-03-26T04:03:57.954Z,3.80
2024-03-26T04:06:25.883Z,4.00
2024-03-26T04:08:53.836Z,3.00
2024-03-26T04:11:21.799Z,4.30
2024-03-26T04:13:52.869Z,4.50
2024-03-26T04:16:20.867Z,4.00
2024-03-26T04:18:48.817Z,4.10
2024-03-26T04:21:16.919Z,4.80
2024-03-26T04:23:44.921Z,4.40
2024-03-26T04:26:12.952Z,4.30
2024-03-26T04:28:40.917Z,3.90
2024-03-26T04:31:08.875Z,4.10
2024-03-26T04:33:36.834Z,4.10
2024-03-26T04:36:04.997Z,3.90
2024-03-26T04:38:32.996Z,3.90
2024-03-26T04:41:00.939Z,3.40
2024-03-26T04:43:28.915Z,4.50
2024-03-26T04:45:56.947Z,4.40
2024-03-26T04:48:24.947Z,3.90
2024-03-26T04:50:53.202Z,3.70
2024-03-26T04:53:21.207Z,4.90
2024-03-26T04:55:50.383Z,4.60
2024-03-26T04:58:19.031Z,4.20
2024-03-26T05:00:50.527Z,4.40
2024-03-26T05:03:18.635Z,4.50
2024-03-26T05:05:46.692Z,3.70
2024-03-26T05:08:14.651Z,4.10
2024-03-26T05:10:42.677Z,3.60
2024-03-26T05:13:10.635Z,4.20
2024-03-26T05:15:39.374Z,5.00
2024-03-26T05:18:07.645Z,4.30
2024-03-26T05:20:36.676Z,4.70
2024-03-26T05:23:04.823Z,4.50
2024-03-26T05:25:32.818Z,4.30
2024-03-26T05:28:00.758Z,5.00
2024-03-26T05:30:29.048Z,4.70
2024-03-26T05:32:57.389Z,4.50
2024-03-26T05:35:25.553Z,4.90
2024-03-26T05:37:55.726Z,4.90
2024-03-26T05:40:23.826Z,4.20
2024-03-26T05:42:52.072Z,4.50
2024-03-26T05:45:20.029Z,4.50
2024-03-26T05:47:48.227Z,4.10
2024-03-26T05:50:16.261Z,3.80
2024-03-26T05:52:44.235Z,4.20
2024-03-26T05:55:12.187Z,4.10
2024-03-26T05:57:40.208Z,4.00
2024-03-26T06:00:09.792Z,4.20
2024-03-26T06:02:37.831Z,4.00
2024-03-26T06:05:06.118Z,3.80
2024-03-26T06:07:34.104Z,3.70
2024-03-26T06:10:02.283Z,3.30
2024-03-26T06:12:30.364Z,3.70
2024-03-26T06:14:58.330Z,3.80
2024-03-26T06:17:26.448Z,3.80
2024-03-26T06:19:54.584Z,4.30
2024-03-26T06:22:22.767Z,4.60
2024-03-26T06:24:50.708Z,3.70
2024-03-26T06:27:18.720Z,4.00
2024-03-26T06:29:46.741Z,4.00
2024-03-26T06:32:14.726Z,4.10
2024-03-26T06:34:42.951Z,4.50
2024-03-26T06:37:11.272Z,4.60
2024-03-26T06:39:39.403Z,4.70
2024-03-26T06:42:07.776Z,5.00
2024-03-26T06:44:35.952Z,4.30
2024-03-26T06:47:03.975Z,4.80
2024-03-26T06:49:31.982Z,5.00
2024-03-26T06:51:59.989Z,5.50
2024-03-26T06:54:28.153Z,5.10
2024-03-26T06:56:56.265Z,5.50
2024-03-26T06:59:25.957Z,6.00
2024-03-26T07:01:54.794Z,5.50
2024-03-26T07:04:22.890Z,4.90
2024-03-26T07:06:50.893Z,5.30
2024-03-26T07:09:18.979Z,5.50
2024-03-26T07:11:47.147Z,5.80
2024-03-26T07:14:17.376Z,5.70
2024-03-26T07:16:45.648Z,5.40
2024-03-26T07:19:14.467Z,4.70
2024-03-26T07:21:42.446Z,5.50
2024-03-26T07:24:10.449Z,5.00
2024-03-26T07:26:38.564Z,5.50
2024-03-26T07:29:06.503Z,5.00
2024-03-26T07:31:34.567Z,5.30
2024-03-26T07:34:02.843Z,5.60
2024-03-26T07:36:31.098Z,5.80
2024-03-26T07:38:59.079Z,4.60
2024-03-26T07:41:27.037Z,4.60
2024-03-26T07:43:55.095Z,5.40
2024-03-26T07:46:23.177Z,4.90
2024-03-26T07:48:51.157Z,4.90
2024-03-26T07:51:19.995Z,4.90
2024-03-26T07:53:52.014Z,5.40
2024-03-26T07:56:20.017Z,4.70
2024-03-26T07:58:48.101Z,4.80
2024-03-26T08:01:16.107Z,4.60
2024-03-26T08:03:44.806Z,4.90
2024-03-26T08:06:12.818Z,4.70
2024-03-26T08:08:40.767Z,4.20
2024-03-26T08:11:13.813Z,4.40
2024-03-26T08:13:42.262Z,4.60
2024-03-26T08:16:10.431Z,4.70
2024-03-26T08:18:38.751Z,4.10
2024-03-26T08:21:08.056Z,4.90
2024-03-26T08:23:36.065Z,4.10
2024-03-26T08:26:04.899Z,4.70
2024-03-26T08:28:32.969Z,4.70
2024-03-26T08:31:00.986Z,4.70
2024-03-26T08:33:28.980Z,3.90
2024-03-26T08:35:57.012Z,4.00
2024-03-26T08:38:26.311Z,4.30
2024-03-26T08:40:54.422Z,17.50
2024-03-26T08:43:22.635Z,7.80
2024-03-26T08:45:50.686Z,8.40
2024-03-26T08:48:19.080Z,48.40
2024-03-26T08:50:47.077Z,11.40
2024-03-26T08:53:15.160Z,4.10
2024-03-26T08:55:44.284Z,4.10
2024-03-26T08:58:14.888Z,3.50
2024-03-26T09:00:44.586Z,7.30
2024-03-26T09:03:12.572Z,9.70
2024-03-26T09:05:41.535Z,4.70
2024-03-26T09:08:09.557Z,4.60
2024-03-26T09:10:37.649Z,4.70
2024-03-26T09:13:05.822Z,3.90
2024-03-26T09:15:33.844Z,3.80
2024-03-26T09:18:04.544Z,3.80
2024-03-26T09:20:32.546Z,3.00
2024-03-26T09:23:00.811Z,3.20
2024-03-26T09:25:28.795Z,2.80
2024-03-26T09:27:56.802Z,5.20
2024-03-26T09:30:28.404Z,3.20
2024-03-26T09:32:56.786Z,3.80
2024-03-26T09:35:24.844Z,3.30
2024-03-26T09:37:52.874Z,2.90
2024-03-26T09:40:20.951Z,3.10
2024-03-26T09:42:49.022Z,3.30
2024-03-26T09:45:19.948Z,2.80
2024-03-26T09:47:49.830Z,3.10
2024-03-26T09:50:20.306Z,2.70
2024-03-26T09:52:50.158Z,2.80
2024-03-26T09:55:19.976Z,3.00
2024-03-26T09:57:48.122Z,2.40
2024-03-26T10:00:17.123Z,2.60
2024-03-26T10:02:47.104Z,2.20
2024-03-26T10:05:18.696Z,1.90
2024-03-26T10:07:47.990Z,2.00
2024-03-26T10:10:17.136Z,1.90
2024-03-26T10:12:45.249Z,2.60
2024-03-26T10:15:13.292Z,2.80
2024-03-26T10:17:41.313Z,3.00
2024-03-26T10:20:12.459Z,3.30
2024-03-26T10:22:40.412Z,2.20
2024-03-26T10:25:08.429Z,2.40
2024-03-26T10:27:36.426Z,2.20
2024-03-26T10:30:11.391Z,1.40
2024-03-26T10:32:39.921Z,1.60
2024-03-26T10:35:09.822Z,1.80
2024-03-26T10:37:38.444Z,2.50
2024-03-26T10:40:11.448Z,1.40
2024-03-26T10:43:00.268Z,1.70
2024-03-26T10:45:41.230Z,1.80
2024-03-26T10:48:18.109Z,1.40
2024-03-26T10:50:48.160Z,1.70
2024-03-26T10:53:19.786Z,1.60
2024-03-26T10:55:50.995Z,1.40
2024-03-26T10:58:19.237Z,1.30
2024-03-26T11:00:49.138Z,1.00
2024-03-26T11:03:18.088Z,1.50
2024-03-26T11:05:46.973Z,1.30
2024-03-26T11:08:19.520Z,1.60
2024-03-26T11:11:19.873Z,1.80
2024-03-26T11:13:47.798Z,1.50
2024-03-26T11:16:50.060Z,1.60
2024-03-26T11:19:21.801Z,1.50
2024-03-26T11:21:52.122Z,1.40
2024-03-26T11:24:31.871Z,1.60
2024-03-26T11:27:02.079Z,1.50
2024-03-26T11:29:31.588Z,1.50
2024-03-26T11:32:01.292Z,1.30
2024-03-26T11:34:32.109Z,1.60
2024-03-26T11:37:01.275Z,1.60
2024-03-26T11:39:30.220Z,1.30
2024-03-26T11:41:58.617Z,1.50
2024-03-26T11:44:26.592Z,1.40
2024-03-26T11:46:58.526Z,1.30
2024-03-26T11:49:26.549Z,1.20
2024-03-26T11:51:54.589Z,1.30
2024-03-26T11:54:22.612Z,1.40
2024-03-26T11:56:53.770Z,1.20
2024-03-26T11:59:25.337Z,1.20
2024-03-26T12:01:53.311Z,1.30
2024-03-26T12:04:21.876Z,1.30
2024-03-26T12:06:50.022Z,1.80
2024-03-26T12:09:18.057Z,1.80
2024-03-26T12:11:47.321Z,1.70
2024-03-26T12:14:16.840Z,1.50
2024-03-26T12:16:44.970Z,1.60
2024-03-26T12:19:12.956Z,1.10
2024-03-26T12:21:40.980Z,1.10
2024-03-26T12:24:14.627Z,1.30
2024-03-26T12:26:42.799Z,1.50
2024-03-26T12:29:11.944Z,1.00
2024-03-26T12:31:43.173Z,1.10
2024-03-26T12:34:15.178Z,1.20
2024-03-26T12:36:45.724Z,1.20
2024-03-26T12:39:13.837Z,1.00
2024-03-26T12:41:42.048Z,1.20
2024-03-26T12:44:15.183Z,1.10
2024-03-26T12:46:43.496Z,1.00
2024-03-26T12:49:12.553Z,1.00
2024-03-26T12:51:40.556Z,1.00
2024-03-26T12:54:09.965Z,1.10
2024-03-26T12:56:38.426Z,1.20
2024-03-26T12:59:07.665Z,0.90
2024-03-26T13:01:35.645Z,1.10
2024-03-26T13:04:03.744Z,1.00
2024-03-26T13:06:31.834Z,1.00
2024-03-26T13:08:59.939Z,1.10
2024-03-26T13:11:27.985Z,1.00
2024-03-26T13:13:55.968Z,1.20
2024-03-26T13:16:24.834Z,1.20
2024-03-26T13:18:52.805Z,1.20
2024-03-26T13:21:20.808Z,1.00
2024-03-26T13:23:48.821Z,1.00
2024-03-26T13:26:16.892Z,1.20
2024-03-26T13:28:44.813Z,1.20
2024-03-26T13:31:12.761Z,1.20
2024-03-26T13:33:40.769Z,1.10
2024-03-26T13:36:09.933Z,1.30
2024-03-26T13:38:39.489Z,1.40
2024-03-26T13:41:09.285Z,1.50
2024-03-26T13:43:37.348Z,1.50
2024-03-26T13:46:05.356Z,1.00
2024-03-26T13:48:33.462Z,1.30
2024-03-26T13:51:02.033Z,1.10
2024-03-26T13:53:30.049Z,1.30
2024-03-26T13:55:58.090Z,1.30
2024-03-26T13:58:26.091Z,1.10
2024-03-26T14:00:54.058Z,1.30
2024-03-26T14:03:22.660Z,1.30
2024-03-26T14:05:50.693Z,1.40
2024-03-26T14:08:21.283Z,1.40
2024-03-26T14:10:50.319Z,1.30
2024-03-26T14:13:18.339Z,1.30
2024-03-26T14:15:46.365Z,1.50
2024-03-26T14:18:14.399Z,1.30
2024-03-26T14:20:42.466Z,1.40
2024-03-26T14:23:12.933Z,1.30
2024-03-26T14:25:40.938Z,1.20
2024-03-26T14:28:08.958Z,1.40
2024-03-26T14:30:36.942Z,1.50
2024-03-26T14:33:05.391Z,1.50
2024-03-26T14:35:33.414Z,1.60
2024-03-26T14:38:01.511Z,1.30
2024-03-26T14:40:29.522Z,1.40
2024-03-26T14:42:57.624Z,1.50
2024-03-26T14:45:25.715Z,1.70
2024-03-26T14:47:53.717Z,1.50
2024-03-26T14:50:22.061Z,1.60
2024-03-26T14:52:50.204Z,1.10
2024-03-26T14:55:18.277Z,1.20
2024-03-26T14:57:46.884Z,1.30
2024-03-26T15:00:15.549Z,1.20
2024-03-26T15:02:43.564Z,1.10
2024-03-26T15:05:11.557Z,1.40
2024-03-26T15:07:39.587Z,1.60
2024-03-26T15:10:08.101Z,1.30
2024-03-26T15:12:36.118Z,1.30
2024-03-26T15:15:05.025Z,1.30
2024-03-26T15:17:33.071Z,1.40
2024-03-26T15:20:01.173Z,1.50
2024-03-26T15:22:29.341Z,1.40
2024-03-26T15:24:59.353Z,1.40
2024-03-26T15:27:27.407Z,1.50
2024-03-26T15:30:13.800Z,1.60
2024-03-26T15:32:41.825Z,1.50
2024-03-26T15:35:09.829Z,1.90
2024-03-26T15:37:37.905Z,1.90
2024-03-26T15:40:09.112Z,2.20
2024-03-26T15:42:37.787Z,1.80
2024-03-26T15:45:06.130Z,1.60
2024-03-26T15:47:34.234Z,1.60
2024-03-26T15:50:02.289Z,1.50
2024-03-26T15:52:30.336Z,1.70
2024-03-26T15:54:58.305Z,1.80
2024-03-26T15:57:26.390Z,1.50
2024-03-26T15:59:54.409Z,1.60
2024-03-26T16:02:22.490Z,1.50
2024-03-26T16:04:51.260Z,1.90
2024-03-26T16:07:19.299Z,2.90
2024-03-26T16:10:04.146Z,3.40
2024-03-26T16:12:36.757Z,3.40
2024-03-26T16:15:05.479Z,2.20
2024-03-26T16:17:33.488Z,1.60
2024-03-26T16:20:01.691Z,2.10
2024-03-26T16:22:30.245Z,4.80
2024-03-26T16:24:58.552Z,7.40
2024-03-26T16:27:26.703Z,16.10
2024-03-26T16:29:55.139Z,15.90
2024-03-26T16:32:23.200Z,28.90
2024-03-26T16:34:51.547Z,27.00
2024-03-26T16:37:19.552Z,19.70
2024-03-26T16:39:47.528Z,28.40
2024-03-26T16:42:15.531Z,27.40
2024-03-26T16:44:43.584Z,22.90
2024-03-26T16:47:11.656Z,31.90
2024-03-26T16:49:39.689Z,48.40
2024-03-26T16:52:08.606Z,42.20
2024-03-26T16:54:36.676Z,53.10
2024-03-26T16:57:05.031Z,52.60
2024-03-26T16:59:34.412Z,13.00
2024-03-26T17:02:03.648Z,49.30
2024-03-26T17:08:08.069Z,74.00
2024-03-26T17:10:36.416Z,76.30
2024-03-26T17:13:04.521Z,91.90
2024-03-26T17:15:32.672Z,101.20
2024-03-26T17:18:00.764Z,90.90
2024-03-26T17:20:28.866Z,72.30
2024-03-26T17:22:56.873Z,93.20
2024-03-26T17:25:27.035Z,81.10
2024-03-26T17:27:55.117Z,71.20
2024-03-26T17:30:23.464Z,76.60
2024-03-26T17:32:51.515Z,77.70
2024-03-26T17:35:19.598Z,73.30
2024-03-26T17:37:49.268Z,57.00
2024-03-26T17:40:17.938Z,39.80
2024-03-26T17:42:46.171Z,33.00
2024-03-26T17:45:14.762Z,33.60
2024-03-26T17:47:43.163Z,35.70
2024-03-26T17:50:11.218Z,33.70
2024-03-26T17:52:39.255Z,24.60
2024-03-26T17:55:07.698Z,24.20
2024-03-26T17:57:35.739Z,37.60
2024-03-26T18:00:04.600Z,57.70
2024-03-26T18:02:32.630Z,53.10
2024-03-26T18:05:01.436Z,37.60
2024-03-26T18:07:29.561Z,37.40
2024-03-26T18:09:57.633Z,64.60
2024-03-26T18:12:25.727Z,39.70
2024-03-26T18:14:53.714Z,29.50
2024-03-26T18:17:22.679Z,36.50
2024-03-26T18:19:50.667Z,30.50
2024-03-26T18:22:18.830Z,33.90
2024-03-26T18:24:49.023Z,44.40
2024-03-26T18:27:17.704Z,49.40
2024-03-26T18:29:45.717Z,40.00
2024-03-26T18:32:13.741Z,19.60
2024-03-26T18:34:41.764Z,14.70
2024-03-26T18:37:09.794Z,16.10
2024-03-26T18:39:37.824Z,19.90
2024-03-26T18:42:06.012Z,23.30
2024-03-26T18:44:34.021Z,24.90
2024-03-26T18:47:02.136Z,22.50
2024-03-26T18:49:31.041Z,24.70
2024-03-26T18:52:00.378Z,29.10
2024-03-26T18:54:28.437Z,31.70
2024-03-26T18:56:56.436Z,30.60
2024-03-26T18:59:27.508Z,19.70
2024-03-26T19:01:55.910Z,45.50
2024-03-26T19:04:23.926Z,113.30
2024-03-26T19:06:52.398Z,37.00
2024-03-26T19:09:20.491Z,28.20
2024-03-26T19:11:48.542Z,15.60
2024-03-26T19:14:16.544Z,10.50
2024-03-26T19:16:44.546Z,16.70
2024-03-26T19:19:12.584Z,20.40
2024-03-26T19:21:40.594Z,20.10
2024-03-26T19:24:08.693Z,17.10
2024-03-26T19:26:36.823Z,22.10
2024-03-26T19:29:04.949Z,26.40
2024-03-26T19:31:32.921Z,33.70
2024-03-26T19:34:01.103Z,26.60
2024-03-26T19:36:29.193Z,25.60
2024-03-26T19:38:57.550Z,24.20
2024-03-26T19:41:25.689Z,20.10
2024-03-26T19:43:53.702Z,21.20
2024-03-26T19:46:21.814Z,22.40
2024-03-26T19:48:50.659Z,22.00
2024-03-26T19:51:18.701Z,16.80
2024-03-26T19:53:46.705Z,20.90
2024-03-26T19:56:15.907Z,22.30
2024-03-26T19:58:43.920Z,17.40
2024-03-26T20:01:13.022Z,17.30
2024-03-26T20:03:41.045Z,19.00
2024-03-26T20:06:11.365Z,17.70
2024-03-26T20:08:43.851Z,16.20
2024-03-26T20:11:13.184Z,13.90
2024-03-26T20:13:42.424Z,14.50
2024-03-26T20:16:12.465Z,16.50
2024-03-26T20:18:40.515Z,12.80
2024-03-26T20:21:08.899Z,14.60
2024-03-26T20:23:37.684Z,14.60
2024-03-26T20:26:08.211Z,20.10
2024-03-26T20:28:36.897Z,21.20
2024-03-26T20:31:12.817Z,22.20
2024-03-26T20:33:42.145Z,18.10
2024-03-26T20:36:16.851Z,13.90
2024-03-26T20:38:45.407Z,16.40
2024-03-26T20:41:13.408Z,15.90
2024-03-26T20:43:41.464Z,15.80
2024-03-26T20:46:10.327Z,15.80
2024-03-26T20:48:38.451Z,15.60
2024-03-26T20:51:13.733Z,17.00
2024-03-26T20:53:41.780Z,7.40
2024-03-26T20:56:09.830Z,10.80
2024-03-26T20:58:38.028Z,13.90
2024-03-26T21:01:06.138Z,10.50
2024-03-26T21:03:36.542Z,11.00
2024-03-26T21:06:06.314Z,10.90
2024-03-26T21:08:35.458Z,12.10
2024-03-26T21:11:13.371Z,11.20
2024-03-26T21:13:41.406Z,10.00
2024-03-26T21:16:14.061Z,10.80
2024-03-26T21:18:49.024Z,9.10
2024-03-26T21:21:18.710Z,7.00
2024-03-26T21:23:48.812Z,8.10
2024-03-26T21:26:18.916Z,8.50
2024-03-26T21:28:47.621Z,7.60
2024-03-26T21:31:15.768Z,8.50
2024-03-26T21:33:43.982Z,10.40
2024-03-26T21:36:13.476Z,9.50
2024-03-26T21:38:41.570Z,9.60
2024-03-26T21:41:12.068Z,9.60
2024-03-26T21:43:40.104Z,9.60
2024-03-26T21:46:08.083Z,9.40
2024-03-26T21:48:36.905Z,8.90
2024-03-26T21:51:05.626Z,8.20
2024-03-26T21:53:33.660Z,9.50
2024-03-26T21:56:11.780Z,7.90
2024-03-26T21:58:39.868Z,7.70
2024-03-26T22:01:14.508Z,6.70
2024-03-26T22:03:43.673Z,6.20
2024-03-26T22:06:12.926Z,6.90
2024-03-26T22:08:42.542Z,6.00
2024-03-26T22:11:12.487Z,7.00
2024-03-26T22:13:43.768Z,6.60
2024-03-26T22:16:11.869Z,5.70
2024-03-26T22:18:39.960Z,5.90
2024-03-26T22:21:08.044Z,6.80
2024-03-26T22:23:36.100Z,6.00
2024-03-26T22:26:05.699Z,6.70
2024-03-26T22:28:34.888Z,6.80
2024-03-26T22:31:03.905Z,6.20
2024-03-26T22:33:32.195Z,6.80
2024-03-26T22:36:00.387Z,5.80
2024-03-26T22:38:29.357Z,6.50
2024-03-26T22:40:58.793Z,7.20
2024-03-26T22:43:28.948Z,7.10
2024-03-26T22:46:00.651Z,7.40
2024-03-26T22:48:32.383Z,6.70
2024-03-26T22:51:01.757Z,7.60
2024-03-26T22:53:29.877Z,6.60
2024-03-26T22:56:02.836Z,6.10
2024-03-26T23:00:59.085Z,7.50
2024-03-26T23:03:27.834Z,8.20
2024-03-26T23:06:03.124Z,8.70
2024-03-26T23:08:31.565Z,7.80
2024-03-26T23:10:59.729Z,7.30
2024-03-26T23:13:28.557Z,7.30
2024-03-26T23:16:00.983Z,6.70
2024-03-26T23:18:29.197Z,6.10
2024-03-26T23:20:57.516Z,7.50
2024-03-26T23:23:26.013Z,7.00
2024-03-26T23:25:54.051Z,6.80
2024-03-26T23:28:22.199Z,5.90
2024-03-26T23:30:50.306Z,6.80
2024-03-26T23:33:18.693Z,6.50
2024-03-26T23:35:46.834Z,5.60
2024-03-26T23:38:15.610Z,6.20
2024-03-26T23:40:43.658Z,5.50
2024-03-26T23:43:11.702Z,5.70
2024-03-26T23:45:39.878Z,5.60
2024-03-26T23:48:08.217Z,5.60
2024-03-26T23:50:36.293Z,5.40
2024-03-26T23:53:04.682Z,5.10
2024-03-26T23:55:33.188Z,5.30
2024-03-26T23:58:01.839Z,5.90
